createdAt,value
2018-04-22T00:00:38.062Z,0
2018-04-22T00:01:47.795Z,0
2018-04-22T00:02:57.787Z,0
2018-04-22T00:04:07.516Z,0
2018-04-22T00:05:17.521Z,0
2018-04-22T00:06:27.304Z,0
2018-04-22T00:07:37.033Z,0
2018-04-22T00:08:46.766Z,0
2018-04-22T00:09:56.772Z,0
2018-04-22T00:11:06.499Z,0
2018-04-22T00:12:16.499Z,0
2018-04-22T00:13:26.239Z,0
2018-04-22T00:14:36.241Z,0
2018-04-22T00:15:46.244Z,0
2018-04-22T00:16:56.243Z,0
2018-04-22T00:18:05.706Z,0
2018-04-22T00:19:15.706Z,0
2018-04-22T00:20:25.179Z,0
2018-04-22T00:21:35.178Z,0
2018-04-22T00:22:44.377Z,0
2018-04-22T00:23:54.105Z,0
2018-04-22T00:25:03.840Z,0
2018-04-22T00:26:13.311Z,0
2018-04-22T00:27:23.310Z,0
2018-04-22T00:28:33.317Z,0
2018-04-22T00:29:43.050Z,0
2018-04-22T00:30:52.782Z,0
2018-04-22T00:32:02.781Z,0
2018-04-22T00:33:12.519Z,0
2018-04-22T00:34:22.249Z,0
2018-04-22T00:35:32.252Z,0
2018-04-22T00:36:41.987Z,0
2018-04-22T00:37:52.004Z,0
2018-04-22T00:39:02.007Z,0
2018-04-22T00:40:11.737Z,0
2018-04-22T00:41:21.728Z,0
2018-04-22T00:42:31.738Z,0
2018-04-22T00:43:41.491Z,0
2018-04-22T00:44:51.227Z,0
2018-04-22T00:46:00.954Z,0
2018-04-22T00:47:10.417Z,0
2018-04-22T00:48:20.159Z,0
2018-04-22T00:49:29.632Z,0
2018-04-22T00:50:39.632Z,0
2018-04-22T00:51:49.633Z,0
2018-04-22T00:52:59.630Z,0
2018-04-22T00:54:09.091Z,0
2018-04-22T00:55:18.821Z,0
2018-04-22T00:56:28.550Z,0
2018-04-22T00:57:38.294Z,0
2018-04-22T00:58:47.759Z,0
2018-04-22T00:59:57.755Z,0
2018-04-22T01:01:07.498Z,0
2018-04-22T01:02:17.503Z,0
2018-04-22T01:03:26.435Z,0
2018-04-22T01:04:36.539Z,0
2018-04-22T01:05:45.738Z,0
2018-04-22T01:06:55.737Z,0
2018-04-22T01:08:05.471Z,0
2018-04-22T01:09:15.206Z,0
2018-04-22T01:10:25.217Z,0
2018-04-22T01:11:34.414Z,0
2018-04-22T01:12:44.152Z,0
2018-04-22T01:13:53.629Z,0
2018-04-22T01:15:03.363Z,0
2018-04-22T01:16:13.362Z,0
2018-04-22T01:17:23.368Z,0
2018-04-22T01:18:33.113Z,0
2018-04-22T01:19:42.841Z,0
2018-04-22T01:20:52.848Z,0
2018-04-22T01:22:02.590Z,0
2018-04-22T01:23:12.321Z,0
2018-04-22T01:24:22.332Z,0
2018-04-22T01:25:32.065Z,0
2018-04-22T01:26:41.550Z,0
2018-04-22T01:27:51.296Z,0
2018-04-22T01:29:00.767Z,0
2018-04-22T01:30:10.497Z,0
2018-04-22T01:31:20.501Z,0
2018-04-22T01:32:30.241Z,0
2018-04-22T01:33:40.242Z,0
2018-04-22T01:34:49.972Z,0
2018-04-22T01:35:59.983Z,0
2018-04-22T01:37:09.454Z,0
2018-04-22T01:38:19.470Z,0
2018-04-22T01:39:29.200Z,0
2018-04-22T01:40:38.936Z,0
2018-04-22T01:41:48.421Z,0
2018-04-22T01:42:58.145Z,0
2018-04-22T01:44:07.607Z,0
2018-04-22T01:45:17.349Z,0
2018-04-22T01:46:27.080Z,0
2018-04-22T01:47:36.819Z,0
2018-04-22T01:48:46.817Z,0
2018-04-22T01:49:56.820Z,0
2018-04-22T01:51:06.562Z,0
2018-04-22T01:52:16.555Z,0
2018-04-22T01:53:26.559Z,0
2018-04-22T01:54:36.290Z,0
2018-04-22T01:55:46.018Z,0
2018-04-22T01:56:55.757Z,0
2018-04-22T01:58:05.489Z,0
2018-04-22T01:59:14.959Z,0
2018-04-22T02:00:24.960Z,0
2018-04-22T02:01:34.959Z,0
2018-04-22T02:02:49.664Z,0
2018-04-22T02:03:59.395Z,0
2018-04-22T02:05:08.870Z,0
2018-04-22T02:06:18.615Z,0
2018-04-22T02:07:28.617Z,0
2018-04-22T02:08:38.552Z,0
2018-04-22T02:09:48.558Z,0
2018-04-22T02:10:58.029Z,0
2018-04-22T02:12:08.111Z,0
2018-04-22T02:13:17.841Z,0
2018-04-22T02:14:27.670Z,0
2018-04-22T02:15:37.683Z,0
2018-04-22T02:16:47.702Z,0
2018-04-22T02:17:57.439Z,0
2018-04-22T02:19:06.915Z,0
2018-04-22T02:20:16.749Z,0
2018-04-22T02:21:25.946Z,0
2018-04-22T02:22:34.878Z,0
2018-04-22T02:23:44.612Z,0
2018-04-22T02:24:54.081Z,0
2018-04-22T02:26:03.551Z,0
2018-04-22T02:27:13.602Z,0
2018-04-22T02:28:23.056Z,0
2018-04-22T02:29:32.323Z,0
2018-04-22T02:30:42.324Z,0
2018-04-22T02:31:52.069Z,0
2018-04-22T02:33:01.816Z,0
2018-04-22T02:34:11.558Z,0
2018-04-22T02:35:21.572Z,0
2018-04-22T02:36:31.600Z,0
2018-04-22T02:37:41.969Z,0
2018-04-22T02:38:51.706Z,0
2018-04-22T02:40:01.709Z,0
2018-04-22T02:41:11.456Z,0
2018-04-22T02:42:21.203Z,0
2018-04-22T02:43:31.389Z,0
2018-04-22T02:44:41.241Z,0
2018-04-22T02:45:51.244Z,0
2018-04-22T02:47:00.706Z,0
2018-04-22T02:48:10.440Z,0
2018-04-22T02:49:20.454Z,0
2018-04-22T02:50:30.497Z,0
2018-04-22T02:51:39.424Z,0
2018-04-22T02:52:49.431Z,4
2018-04-22T02:53:59.441Z,4
2018-04-22T02:55:09.190Z,0
2018-04-22T02:56:18.939Z,0
2018-04-22T02:57:28.681Z,4
2018-04-22T02:58:38.158Z,4
2018-04-22T02:59:48.163Z,4
2018-04-22T03:03:32.832Z,4
2018-04-22T03:04:42.847Z,8
2018-04-22T03:05:52.844Z,8
2018-04-22T03:07:02.323Z,8
2018-04-22T03:08:12.056Z,12
2018-04-22T03:09:21.801Z,12
2018-04-22T03:10:31.819Z,12
2018-04-22T03:11:41.546Z,16
2018-04-22T03:12:51.596Z,16
2018-04-22T03:14:01.055Z,20
2018-04-22T03:15:10.523Z,20
2018-04-22T03:16:20.522Z,24
2018-04-22T03:17:29.996Z,28
2018-04-22T03:18:39.461Z,32
2018-04-22T03:19:49.194Z,36
2018-04-22T03:20:58.927Z,40
2018-04-22T03:22:08.929Z,48
2018-04-22T03:23:18.685Z,52
2018-04-22T03:24:28.478Z,56
2018-04-22T03:25:37.945Z,64
2018-04-22T03:26:47.989Z,72
2018-04-22T03:27:57.991Z,80
2018-04-22T03:29:07.999Z,88
2018-04-22T03:30:17.740Z,96
2018-04-22T03:31:27.756Z,108
2018-04-22T03:32:37.756Z,116
2018-04-22T03:33:47.481Z,128
2018-04-22T03:34:57.481Z,140
2018-04-22T03:36:07.486Z,152
2018-04-22T03:37:17.236Z,164
2018-04-22T03:38:26.972Z,184
2018-04-22T03:39:36.700Z,196
2018-04-22T03:40:46.433Z,216
2018-04-22T03:41:56.165Z,232
2018-04-22T03:43:05.909Z,248
2018-04-22T03:44:15.643Z,264
2018-04-22T03:45:25.668Z,280
2018-04-22T03:46:35.132Z,296
2018-04-22T03:47:44.862Z,312
2018-04-22T03:48:54.869Z,328
2018-04-22T03:50:04.869Z,344
2018-04-22T03:51:14.600Z,360
2018-04-22T03:52:24.333Z,380
2018-04-22T03:53:34.345Z,400
2018-04-22T03:54:44.348Z,424
2018-04-22T03:55:54.076Z,452
2018-04-22T03:57:03.807Z,472
2018-04-22T03:58:13.544Z,500
2018-04-22T03:59:23.543Z,532
2018-04-22T04:00:33.003Z,560
2018-04-22T04:01:42.465Z,592
2018-04-22T04:02:52.196Z,616
2018-04-22T04:04:01.924Z,644
2018-04-22T04:05:11.658Z,672
2018-04-22T04:06:21.668Z,696
2018-04-22T04:07:31.664Z,720
2018-04-22T04:08:41.398Z,748
2018-04-22T04:09:51.146Z,780
2018-04-22T04:11:00.889Z,812
2018-04-22T04:12:10.616Z,848
2018-04-22T04:13:20.714Z,880
2018-04-22T04:14:30.445Z,912
2018-04-22T04:15:39.908Z,940
2018-04-22T04:16:49.920Z,972
2018-04-22T04:17:59.916Z,1000
2018-04-22T04:19:09.910Z,1036
2018-04-22T04:20:19.372Z,1064
2018-04-22T04:21:29.103Z,1100
2018-04-22T04:22:38.834Z,1128
2018-04-22T04:23:48.577Z,1164
2018-04-22T04:24:58.183Z,1200
2018-04-22T04:26:07.654Z,1240
2018-04-22T04:27:17.392Z,1284
2018-04-22T04:28:27.122Z,1324
2018-04-22T04:29:37.116Z,1372
2018-04-22T04:30:47.132Z,1420
2018-04-22T04:31:57.237Z,1472
2018-04-22T04:33:06.433Z,1512
2018-04-22T04:34:16.165Z,1552
2018-04-22T04:35:25.903Z,1600
2018-04-22T04:36:35.904Z,1636
2018-04-22T04:37:45.635Z,1656
2018-04-22T04:38:55.107Z,1680
2018-04-22T04:40:04.308Z,1716
2018-04-22T04:41:13.774Z,1752
2018-04-22T04:42:23.242Z,1796
2018-04-22T04:43:33.085Z,1844
2018-04-22T04:44:42.814Z,1884
2018-04-22T04:45:52.584Z,1908
2018-04-22T04:47:02.593Z,1936
2018-04-22T04:48:12.334Z,1980
2018-04-22T04:49:22.060Z,2016
2018-04-22T04:50:31.526Z,2076
2018-04-22T04:51:41.256Z,2124
2018-04-22T04:52:50.996Z,2144
2018-04-22T04:54:00.779Z,2144
2018-04-22T04:55:10.520Z,2172
2018-04-22T04:56:20.568Z,2188
2018-04-22T04:57:30.304Z,2240
2018-04-22T04:58:40.309Z,2284
2018-04-22T04:59:50.315Z,2320
2018-04-22T05:01:00.308Z,2372
2018-04-22T05:02:10.104Z,2432
2018-04-22T05:03:19.574Z,2488
2018-04-22T05:04:29.316Z,2524
2018-04-22T05:05:39.321Z,2584
2018-04-22T05:06:49.320Z,2640
2018-04-22T05:07:59.060Z,2696
2018-04-22T05:09:08.528Z,2752
2018-04-22T05:10:18.260Z,2780
2018-04-22T05:11:27.997Z,2816
2018-04-22T05:12:37.728Z,2872
2018-04-22T05:13:47.731Z,2896
2018-04-22T05:14:57.722Z,2892
2018-04-22T05:16:07.457Z,2928
2018-04-22T05:17:17.187Z,2956
2018-04-22T05:18:26.402Z,2996
2018-04-22T05:19:36.142Z,3040
2018-04-22T05:20:45.878Z,3072
2018-04-22T05:21:55.606Z,3108
2018-04-22T05:23:05.348Z,3160
2018-04-22T05:24:15.368Z,3208
2018-04-22T05:25:25.462Z,3268
2018-04-22T05:26:34.933Z,3340
2018-04-22T05:27:44.404Z,3396
2018-04-22T05:28:54.152Z,3480
2018-04-22T05:30:04.156Z,3552
2018-04-22T05:31:14.082Z,3624
2018-04-22T05:32:24.167Z,3704
2018-04-22T05:33:33.896Z,3832
2018-04-22T05:34:43.368Z,3928
2018-04-22T05:35:53.370Z,3960
2018-04-22T05:37:03.104Z,4000
2018-04-22T05:38:12.040Z,4064
2018-04-22T05:39:21.775Z,4168
2018-04-22T05:40:31.826Z,4324
2018-04-22T05:41:41.844Z,4444
2018-04-22T05:42:51.408Z,4544
2018-04-22T05:44:01.411Z,4616
2018-04-22T05:45:11.144Z,4680
2018-04-22T05:46:20.887Z,4664
2018-04-22T05:47:30.892Z,4732
2018-04-22T05:48:40.935Z,4716
2018-04-22T05:49:51.009Z,4580
2018-04-22T05:51:00.741Z,4704
2018-04-22T05:52:10.211Z,4812
2018-04-22T05:53:19.947Z,4776
2018-04-22T05:54:29.675Z,4768
2018-04-22T05:55:39.413Z,4808
2018-04-22T05:56:49.148Z,4796
2018-04-22T05:57:59.145Z,4892
2018-04-22T05:59:08.618Z,4920
2018-04-22T06:00:18.365Z,4980
2018-04-22T06:01:28.105Z,5080
2018-04-22T06:02:37.843Z,5076
2018-04-22T06:03:47.850Z,5080
2018-04-22T06:04:57.856Z,5080
2018-04-22T06:06:07.866Z,5128
2018-04-22T06:07:17.877Z,5196
2018-04-22T06:08:27.615Z,5260
2018-04-22T06:09:37.348Z,5372
2018-04-22T06:10:47.352Z,5576
2018-04-22T06:11:57.351Z,5856
2018-04-22T06:13:07.352Z,6076
2018-04-22T06:14:16.553Z,6160
2018-04-22T06:15:26.339Z,6216
2018-04-22T06:16:35.799Z,6264
2018-04-22T06:17:45.325Z,6184
2018-04-22T06:18:55.321Z,6052
2018-04-22T06:20:05.320Z,5888
2018-04-22T06:21:15.334Z,5704
2018-04-22T06:22:25.331Z,5592
2018-04-22T06:23:35.080Z,5472
2018-04-22T06:24:44.818Z,5356
2018-04-22T06:25:54.548Z,5304
2018-04-22T06:27:04.547Z,5296
2018-04-22T06:28:14.046Z,5244
2018-04-22T06:29:23.518Z,5224
2018-04-22T06:30:32.990Z,5256
2018-04-22T06:31:42.728Z,5324
2018-04-22T06:32:52.749Z,5372
2018-04-22T06:34:01.947Z,5404
2018-04-22T06:35:11.686Z,5384
2018-04-22T06:36:21.707Z,5400
2018-04-22T06:37:31.736Z,5460
2018-04-22T06:38:41.741Z,5544
2018-04-22T06:39:51.549Z,5652
2018-04-22T06:41:00.748Z,5784
2018-04-22T06:42:10.217Z,5948
2018-04-22T06:43:20.215Z,6116
2018-04-22T06:44:29.945Z,6332
2018-04-22T06:45:39.681Z,6568
2018-04-22T06:46:49.413Z,6760
2018-04-22T06:47:59.153Z,6964
2018-04-22T06:49:09.182Z,7196
2018-04-22T06:50:18.919Z,7232
2018-04-22T06:51:28.934Z,7320
2018-04-22T06:52:38.667Z,7320
2018-04-22T06:53:48.408Z,7396
2018-04-22T06:54:58.409Z,7432
2018-04-22T06:56:07.880Z,7592
2018-04-22T06:57:17.891Z,7584
2018-04-22T06:58:27.630Z,7728
2018-04-22T06:59:37.106Z,7924
2018-04-22T07:00:47.109Z,8088
2018-04-22T07:01:56.587Z,8092
2018-04-22T07:03:06.066Z,7996
2018-04-22T07:04:16.079Z,7956
2018-04-22T07:05:25.908Z,7884
2018-04-22T07:06:35.992Z,7568
2018-04-22T07:07:45.975Z,7232
2018-04-22T07:08:55.723Z,7056
2018-04-22T07:10:05.198Z,6908
2018-04-22T07:11:14.668Z,6784
2018-04-22T07:12:24.676Z,6500
2018-04-22T07:13:34.511Z,6096
2018-04-22T07:14:44.517Z,6008
2018-04-22T07:15:54.526Z,5908
2018-04-22T07:17:04.276Z,5792
2018-04-22T07:18:13.209Z,5748
2018-04-22T07:19:22.955Z,5852
2018-04-22T07:20:32.692Z,5996
2018-04-22T07:21:42.174Z,5748
2018-04-22T07:22:51.910Z,5624
2018-04-22T07:24:01.470Z,5608
2018-04-22T07:25:11.540Z,6132
2018-04-22T07:26:21.544Z,6192
2018-04-22T07:27:31.549Z,6144
2018-04-22T07:28:41.016Z,6068
2018-04-22T07:29:51.020Z,5888
2018-04-22T07:31:00.759Z,5752
2018-04-22T07:32:10.856Z,5860
2018-04-22T07:33:20.944Z,6048
2018-04-22T07:34:30.414Z,6152
2018-04-22T07:35:39.885Z,6256
2018-04-22T07:36:49.893Z,6356
2018-04-22T07:37:59.898Z,6148
2018-04-22T07:39:09.103Z,6064
2018-04-22T07:40:18.840Z,5980
2018-04-22T07:41:28.854Z,6124
2018-04-22T07:42:39.141Z,6156
2018-04-22T07:43:48.896Z,6620
2018-04-22T07:44:58.629Z,6784
2018-04-22T07:46:08.422Z,6880
2018-04-22T07:47:18.453Z,6960
2018-04-22T07:48:28.233Z,6972
2018-04-22T07:49:37.969Z,7104
2018-04-22T07:50:47.707Z,7124
2018-04-22T07:51:57.713Z,7396
2018-04-22T07:53:07.198Z,7684
2018-04-22T07:54:17.547Z,8164
2018-04-22T07:55:27.280Z,8776
2018-04-22T07:56:37.298Z,9140
2018-04-22T07:57:47.035Z,9700
2018-04-22T07:58:56.771Z,9844
2018-04-22T08:00:06.509Z,9888
2018-04-22T08:01:16.521Z,9880
2018-04-22T08:02:26.530Z,10256
2018-04-22T08:03:36.002Z,10412
2018-04-22T08:04:46.007Z,10356
2018-04-22T08:05:56.048Z,9860
2018-04-22T08:07:05.790Z,9076
2018-04-22T08:08:15.255Z,8908
2018-04-22T08:09:25.274Z,7920
2018-04-22T08:10:34.757Z,7596
2018-04-22T08:11:43.962Z,7188
2018-04-22T08:12:53.977Z,6604
2018-04-22T08:14:03.716Z,5668
2018-04-22T08:15:12.921Z,5264
2018-04-22T08:16:23.107Z,5108
2018-04-22T08:17:33.185Z,5080
2018-04-22T08:18:42.933Z,5112
2018-04-22T08:19:52.947Z,5652
2018-04-22T08:21:02.686Z,6112
2018-04-22T08:22:12.432Z,6152
2018-04-22T08:23:22.165Z,6532
2018-04-22T08:24:31.904Z,6404
2018-04-22T08:25:41.906Z,6688
2018-04-22T08:26:51.910Z,6660
2018-04-22T08:28:01.930Z,6688
2018-04-22T08:29:11.671Z,6720
2018-04-22T08:30:21.684Z,6708
2018-04-22T08:31:31.437Z,6724
2018-04-22T08:32:41.439Z,6700
2018-04-22T08:33:51.443Z,6672
2018-04-22T08:35:00.983Z,6688
2018-04-22T08:36:10.458Z,6676
2018-04-22T08:37:20.467Z,6664
2018-04-22T08:38:30.477Z,6664
2018-04-22T08:39:40.215Z,6680
2018-04-22T08:40:50.217Z,6672
2018-04-22T08:41:59.968Z,6672
2018-04-22T08:43:09.169Z,6708
2018-04-22T08:44:18.912Z,6792
2018-04-22T08:45:28.920Z,6880
2018-04-22T08:46:38.657Z,6800
2018-04-22T08:47:48.664Z,6736
2018-04-22T08:48:58.681Z,6132
2018-04-22T08:50:07.884Z,6164
2018-04-22T08:51:17.888Z,6368
2018-04-22T08:52:27.635Z,6632
2018-04-22T08:53:37.382Z,6708
2018-04-22T08:54:47.120Z,6412
2018-04-22T08:55:56.989Z,6444
2018-04-22T08:57:06.202Z,6716
2018-04-22T08:58:15.946Z,6732
2018-04-22T08:59:25.950Z,6700
2018-04-22T09:00:35.953Z,6664
2018-04-22T09:01:46.002Z,6672
2018-04-22T09:02:56.011Z,6712
2018-04-22T09:04:05.633Z,6696
2018-04-22T09:05:15.368Z,6692
2018-04-22T09:06:25.383Z,6736
2018-04-22T09:07:35.129Z,6756
2018-04-22T09:08:44.864Z,6772
2018-04-22T09:09:54.883Z,6776
2018-04-22T09:11:04.629Z,6792
2018-04-22T09:12:14.369Z,6792
2018-04-22T09:13:24.379Z,6768
2018-04-22T09:14:34.395Z,6716
2018-04-22T09:15:44.394Z,6704
2018-04-22T09:16:54.182Z,6732
2018-04-22T09:18:03.662Z,6760
2018-04-22T09:19:13.405Z,6776
2018-04-22T09:20:23.152Z,6824
2018-04-22T09:21:33.166Z,6876
2018-04-22T09:22:42.653Z,6932
2018-04-22T09:23:52.669Z,6976
2018-04-22T09:25:02.414Z,7020
2018-04-22T09:26:12.151Z,7068
2018-04-22T09:27:22.159Z,7100
2018-04-22T09:28:32.168Z,7120
2018-04-22T09:29:41.903Z,7092
2018-04-22T09:30:51.906Z,7072
2018-04-22T09:32:01.108Z,7052
2018-04-22T09:33:11.229Z,7024
2018-04-22T09:34:21.332Z,6936
2018-04-22T09:35:30.850Z,6864
2018-04-22T09:36:40.580Z,6816
2018-04-22T09:37:50.047Z,6792
2018-04-22T09:38:59.787Z,6792
2018-04-22T09:40:08.985Z,6796
2018-04-22T09:41:18.472Z,6800
2018-04-22T09:42:28.479Z,6812
2018-04-22T09:43:38.226Z,6816
2018-04-22T09:44:48.240Z,6828
2018-04-22T09:45:58.129Z,6840
2018-04-22T09:47:08.185Z,6860
2018-04-22T09:48:18.187Z,6876
2018-04-22T09:49:28.202Z,6896
2018-04-22T09:50:38.223Z,6920
2018-04-22T09:51:47.960Z,6944
2018-04-22T09:52:57.966Z,6968
2018-04-22T09:54:07.975Z,6992
2018-04-22T09:55:18.027Z,7016
2018-04-22T09:56:27.865Z,7032
2018-04-22T09:57:37.598Z,7048
2018-04-22T09:58:47.329Z,7072
2018-04-22T09:59:57.340Z,7092
2018-04-22T10:01:07.354Z,7120
2018-04-22T10:02:17.360Z,7156
2018-04-22T10:03:26.828Z,7176
2018-04-22T10:04:36.573Z,7196
2018-04-22T10:05:46.574Z,7220
2018-04-22T10:06:56.312Z,7240
2018-04-22T10:08:05.883Z,7256
2018-04-22T10:09:15.884Z,7272
2018-04-22T10:10:25.890Z,7300
2018-04-22T10:11:35.629Z,7344
2018-04-22T10:12:45.370Z,7380
2018-04-22T10:13:55.111Z,7416
2018-04-22T10:15:04.845Z,7444
2018-04-22T10:16:14.594Z,7460
2018-04-22T10:17:24.338Z,7476
2018-04-22T10:18:33.815Z,7464
2018-04-22T10:19:43.562Z,7488
2018-04-22T10:20:53.300Z,7544
2018-04-22T10:22:03.439Z,7564
2018-04-22T10:23:13.185Z,7616
2018-04-22T10:24:23.190Z,7668
2018-04-22T10:25:32.657Z,7708
2018-04-22T10:26:41.865Z,7732
2018-04-22T10:27:51.385Z,7740
2018-04-22T10:29:01.391Z,7760
2018-04-22T10:30:11.147Z,7812
2018-04-22T10:31:21.161Z,7852
2018-04-22T10:32:30.897Z,7916
2018-04-22T10:33:40.370Z,7996
2018-04-22T10:34:50.494Z,8072
2018-04-22T10:36:00.555Z,8100
2018-04-22T10:37:10.334Z,8080
2018-04-22T10:38:20.353Z,8084
2018-04-22T10:39:29.837Z,8056
2018-04-22T10:40:39.311Z,8036
2018-04-22T10:41:49.326Z,8024
2018-04-22T10:42:59.334Z,8024
2018-04-22T10:44:09.339Z,8032
2018-04-22T10:45:19.345Z,8036
2018-04-22T10:46:29.357Z,8032
2018-04-22T10:47:39.097Z,8036
2018-04-22T10:48:48.838Z,8064
2018-04-22T10:49:58.850Z,8056
2018-04-22T10:51:08.592Z,8100
2018-04-22T10:52:18.069Z,8144
2018-04-22T10:53:28.100Z,8172
2018-04-22T10:54:37.572Z,8200
2018-04-22T10:55:47.624Z,8216
2018-04-22T10:56:57.643Z,8252
2018-04-22T10:58:08.057Z,8324
2018-04-22T10:59:18.237Z,8344
2018-04-22T11:00:28.249Z,8300
2018-04-22T11:01:38.000Z,8248
2018-04-22T11:02:48.025Z,8240
2018-04-22T11:03:57.501Z,8248
2018-04-22T11:05:06.765Z,8292
2018-04-22T11:06:16.550Z,8296
2018-04-22T11:07:26.380Z,8328
2018-04-22T11:08:35.856Z,8364
2018-04-22T11:09:45.596Z,8368
2018-04-22T11:10:55.065Z,8392
2018-04-22T11:12:04.549Z,8432
2018-04-22T11:13:14.291Z,8468
2018-04-22T11:14:24.437Z,8572
2018-04-22T11:15:33.648Z,8644
2018-04-22T11:16:43.656Z,8724
2018-04-22T11:17:52.596Z,9008
2018-04-22T11:19:02.606Z,9800
2018-04-22T11:20:11.811Z,14756
2018-04-22T11:21:21.562Z,55392
2018-04-22T11:22:31.566Z,76192
2018-04-22T11:23:41.569Z,75808
2018-04-22T11:24:51.600Z,77056
2018-04-22T11:26:01.347Z,73824
2018-04-22T11:27:11.383Z,75840
2018-04-22T11:28:21.123Z,75232
2018-04-22T11:29:30.598Z,76544
2018-04-22T11:30:40.344Z,70752
2018-04-22T11:31:50.358Z,73504
2018-04-22T11:33:00.369Z,79872
2018-04-22T11:34:10.113Z,77600
2018-04-22T11:35:20.121Z,75008
2018-04-22T11:36:29.602Z,76480
2018-04-22T11:37:39.617Z,76352
2018-04-22T11:38:49.367Z,76288
2018-04-22T11:39:59.382Z,76832
2018-04-22T11:41:09.402Z,77088
2018-04-22T11:42:19.412Z,75456
2018-04-22T11:43:29.167Z,77120
2018-04-22T11:44:38.383Z,74592
2018-04-22T11:45:48.418Z,73824
2018-04-22T11:46:57.912Z,77792
2018-04-22T11:48:07.661Z,77152
2018-04-22T11:49:17.415Z,75936
2018-04-22T11:50:27.431Z,78592
2018-04-22T11:51:37.180Z,75744
2018-04-22T11:52:47.031Z,76512
2018-04-22T11:53:56.795Z,76384
2018-04-22T11:55:06.821Z,75392
2018-04-22T11:56:16.583Z,76928
2018-04-22T11:57:26.606Z,76992
2018-04-22T11:58:36.150Z,78368
2018-04-22T11:59:45.912Z,79392
2018-04-22T12:00:55.682Z,78848
2018-04-22T12:02:05.442Z,80192
2018-04-22T12:03:14.935Z,78752
2018-04-22T12:04:24.957Z,78016
2018-04-22T12:05:34.722Z,75328
2018-04-22T12:06:44.472Z,73120
2018-04-22T12:07:54.494Z,76672
2018-04-22T12:09:04.526Z,78272
2018-04-22T12:10:14.013Z,76128
2018-04-22T12:11:23.777Z,77344
2018-04-22T12:12:33.807Z,74816
2018-04-22T12:13:43.828Z,70080
2018-04-22T12:14:53.315Z,72128
2018-04-22T12:16:03.352Z,76064
2018-04-22T12:17:12.588Z,67552
2018-04-22T12:18:22.353Z,67264
2018-04-22T12:19:32.115Z,64224
2018-04-22T12:20:42.329Z,68032
2018-04-22T12:21:52.473Z,71296
2018-04-22T12:23:02.240Z,74848
2018-04-22T12:24:12.004Z,72640
2018-04-22T12:25:21.767Z,69440
2018-04-22T12:26:31.250Z,69504
2018-04-22T12:27:41.017Z,68960
2018-04-22T12:28:51.038Z,68896
2018-04-22T12:30:00.802Z,71104
2018-04-22T12:31:10.575Z,67360
2018-04-22T12:32:20.612Z,63872
2018-04-22T12:33:30.648Z,61920
2018-04-22T12:34:40.410Z,56672
2018-04-22T12:35:49.900Z,56448
2018-04-22T12:36:59.400Z,53312
2018-04-22T12:38:09.162Z,53632
2018-04-22T12:39:18.936Z,57920
2018-04-22T12:40:28.708Z,64832
2018-04-22T12:41:38.202Z,62624
2018-04-22T12:42:47.707Z,66560
2018-04-22T12:43:57.465Z,74752
2018-04-22T12:45:07.221Z,81024
2018-04-22T12:46:17.250Z,78816
2018-04-22T12:47:27.004Z,78656
2018-04-22T12:48:37.046Z,75296
2018-04-22T12:49:47.082Z,71968
2018-04-22T12:50:55.771Z,72288
2018-04-22T12:52:05.799Z,64384
2018-04-22T12:53:15.552Z,66976
2018-04-22T12:54:25.038Z,72256
2018-04-22T12:55:34.807Z,76960
2018-04-22T12:56:44.838Z,77152
2018-04-22T12:57:54.867Z,77952
2018-04-22T12:59:04.889Z,76128
2018-04-22T13:00:14.655Z,72064
2018-04-22T13:01:24.695Z,70336
2018-04-22T13:02:34.456Z,67200
2018-04-22T13:03:44.481Z,68000
2018-04-22T13:04:54.528Z,68416
2018-04-22T13:06:04.127Z,68096
2018-04-22T13:07:13.907Z,67424
2018-04-22T13:08:23.400Z,63424
2018-04-22T13:09:32.889Z,66432
2018-04-22T13:10:42.379Z,63648
2018-04-22T13:11:52.174Z,65536
2018-04-22T13:13:01.939Z,59904
2018-04-22T13:14:11.580Z,53792
2018-04-22T13:15:21.030Z,48224
2018-04-22T13:16:30.785Z,38624
2018-04-22T13:17:40.277Z,45568
2018-04-22T13:18:50.300Z,46464
2018-04-22T13:20:00.318Z,38304
2018-04-22T13:21:10.080Z,41248
2018-04-22T13:22:20.105Z,38752
2018-04-22T13:23:30.139Z,35648
2018-04-22T13:24:39.895Z,43072
2018-04-22T13:25:50.067Z,49600
2018-04-22T13:26:59.564Z,58496
2018-04-22T13:28:09.330Z,65184
2018-04-22T13:29:19.351Z,65472
2018-04-22T13:30:28.844Z,57024
2018-04-22T13:31:38.963Z,57600
2018-04-22T13:32:49.141Z,56768
2018-04-22T13:33:59.168Z,61856
2018-04-22T13:35:08.658Z,56192
2018-04-22T13:36:18.417Z,54240
2018-04-22T13:37:28.233Z,58656
2018-04-22T13:38:37.997Z,57216
2018-04-22T13:39:47.490Z,54848
2018-04-22T13:40:57.260Z,48768
2018-04-22T13:42:07.022Z,40800
2018-04-22T13:43:16.511Z,41728
2018-04-22T13:44:26.547Z,40448
2018-04-22T13:45:36.572Z,49888
2018-04-22T13:46:46.594Z,50944
2018-04-22T13:47:56.620Z,56192
2018-04-22T13:49:06.446Z,62624
2018-04-22T13:50:16.483Z,60256
2018-04-22T13:51:26.248Z,64224
2018-04-22T13:52:36.009Z,67136
2018-04-22T13:53:46.035Z,65632
2018-04-22T13:54:55.529Z,66784
2018-04-22T13:56:05.289Z,67296
2018-04-22T13:57:15.312Z,59904
2018-04-22T13:58:25.334Z,61472
2018-04-22T13:59:35.355Z,61152
2018-04-22T14:00:44.899Z,60672
2018-04-22T14:01:54.658Z,60512
2018-04-22T14:03:04.678Z,64224
2018-04-22T14:04:14.437Z,59488
2018-04-22T14:05:24.194Z,53728
2018-04-22T14:06:33.954Z,49472
2018-04-22T14:07:43.984Z,32608
2018-04-22T14:08:54.022Z,47808
2018-04-22T14:10:03.513Z,61056
2018-04-22T14:11:13.270Z,64288
2018-04-22T14:12:22.760Z,64000
2018-04-22T14:13:32.251Z,64448
2018-04-22T14:14:42.014Z,69120
2018-04-22T14:15:52.050Z,71552
2018-04-22T14:17:01.814Z,69024
2018-04-22T14:18:11.930Z,68352
2018-04-22T14:19:21.428Z,75680
2018-04-22T14:20:31.207Z,73824
2018-04-22T14:21:40.973Z,68608
2018-04-22T14:22:50.730Z,62848
2018-04-22T14:24:00.766Z,60160
2018-04-22T14:25:10.389Z,61056
2018-04-22T14:26:20.229Z,57408
2018-04-22T14:27:29.987Z,60608
2018-04-22T14:28:40.011Z,66080
2018-04-22T14:29:48.968Z,67328
2018-04-22T14:30:58.999Z,60512
2018-04-22T14:32:08.488Z,55040
2018-04-22T14:33:18.510Z,51168
2018-04-22T14:34:28.557Z,61536
2018-04-22T14:35:38.314Z,66304
2018-04-22T14:36:48.126Z,72672
2018-04-22T14:37:57.612Z,72224
2018-04-22T14:39:07.373Z,73952
2018-04-22T14:40:17.145Z,74112
2018-04-22T14:41:27.171Z,62944
2018-04-22T14:42:36.927Z,56448
2018-04-22T14:43:46.954Z,63072
2018-04-22T14:44:56.205Z,67392
2018-04-22T14:46:05.695Z,62240
2018-04-22T14:47:15.720Z,77888
2018-04-22T14:48:25.474Z,78784
2018-04-22T14:49:35.247Z,78048
2018-04-22T14:50:45.118Z,76064
2018-04-22T14:51:55.341Z,75424
2018-04-22T14:53:05.484Z,76480
2018-04-22T14:54:15.508Z,73024
2018-04-22T14:55:25.269Z,74432
2018-04-22T14:56:35.296Z,75136
2018-04-22T14:57:45.402Z,76096
2018-04-22T14:58:55.256Z,69856
2018-04-22T15:00:05.291Z,68608
2018-04-22T15:01:15.320Z,70912
2018-04-22T15:02:25.084Z,75744
2018-04-22T15:03:34.842Z,73408
2018-04-22T15:04:44.864Z,74464
2018-04-22T15:05:54.889Z,73120
2018-04-22T15:07:04.924Z,72512
2018-04-22T15:08:14.948Z,71520
2018-04-22T15:09:24.438Z,69888
2018-04-22T15:10:34.207Z,70304
2018-04-22T15:11:43.701Z,68576
2018-04-22T15:12:53.197Z,66496
2018-04-22T15:14:02.955Z,64448
2018-04-22T15:15:12.445Z,64640
2018-04-22T15:16:22.211Z,63168
2018-04-22T15:17:32.244Z,58944
2018-04-22T15:18:42.012Z,62112
2018-04-22T15:19:52.048Z,63328
2018-04-22T15:21:01.542Z,61376
2018-04-22T15:22:11.581Z,59392
2018-04-22T15:23:21.619Z,62080
2018-04-22T15:24:31.118Z,59008
2018-04-22T15:25:41.149Z,58528
2018-04-22T15:26:51.179Z,38720
2018-04-22T15:28:01.325Z,45760
2018-04-22T15:29:11.090Z,35424
2018-04-22T15:30:20.599Z,17760
2018-04-22T15:31:30.358Z,25632
2018-04-22T15:32:39.855Z,20960
2018-04-22T15:33:49.619Z,24416
2018-04-22T15:34:59.384Z,14692
2018-04-22T15:36:08.877Z,19616
2018-04-22T15:37:18.631Z,20032
2018-04-22T15:38:28.399Z,19904
2018-04-22T15:39:37.626Z,20896
2018-04-22T15:40:47.380Z,19264
2018-04-22T15:41:57.143Z,16544
2018-04-22T15:43:07.161Z,15224
2018-04-22T15:44:16.644Z,18080